createdAt,value
2018-09-02T00:01:08.509Z,47.40
2018-09-02T00:03:36.953Z,47.50
2018-09-02T00:06:05.673Z,47.40
2018-09-02T00:08:34.116Z,47.40
2018-09-02T00:11:02.592Z,47.40
2018-09-02T00:13:31.036Z,47.40
2018-09-02T00:15:59.490Z,47.40
2018-09-02T00:18:28.000Z,47.50
2018-09-02T00:20:56.572Z,47.50
2018-09-02T00:23:25.037Z,47.50
2018-09-02T00:25:53.504Z,47.50
2018-09-02T00:28:22.071Z,47.50
2018-09-02T00:30:50.553Z,47.40
2018-09-02T00:33:19.134Z,47.50
2018-09-02T00:35:47.560Z,47.50
2018-09-02T00:38:15.999Z,47.40
2018-09-02T00:40:44.585Z,47.30
2018-09-02T00:43:13.100Z,47.30
2018-09-02T00:45:41.532Z,47.30
2018-09-02T00:48:10.025Z,47.30
2018-09-02T00:50:38.525Z,47.40
2018-09-02T00:53:07.130Z,47.40
2018-09-02T00:55:35.575Z,47.40
2018-09-02T00:58:04.077Z,47.40
2018-09-02T01:00:32.504Z,47.40
2018-09-02T01:03:00.956Z,47.40
2018-09-02T01:05:29.451Z,47.40
2018-09-02T01:07:58.089Z,47.40
2018-09-02T01:10:26.559Z,47.40
2018-09-02T01:12:55.058Z,47.40
2018-09-02T01:15:23.545Z,47.30
2018-09-02T01:17:52.025Z,47.30
2018-09-02T01:20:20.507Z,47.30
2018-09-02T01:22:48.965Z,47.30
2018-09-02T01:25:17.416Z,47.30
2018-09-02T01:27:45.955Z,47.30
2018-09-02T01:30:14.501Z,47.30
2018-09-02T01:32:43.000Z,47.30
2018-09-02T01:35:16.757Z,47.30
2018-09-02T01:37:45.309Z,47.30
2018-09-02T01:40:13.777Z,47.30
2018-09-02T01:42:42.232Z,47.30
2018-09-02T01:45:10.661Z,47.30
2018-09-02T01:47:39.191Z,47.40
2018-09-02T01:50:07.652Z,47.40
2018-09-02T01:52:36.131Z,47.40
2018-09-02T01:55:04.735Z,47.40
2018-09-02T01:57:33.140Z,47.40
2018-09-02T02:00:01.580Z,47.40
2018-09-02T02:02:30.005Z,47.40
2018-09-02T02:04:58.648Z,47.40
2018-09-02T02:07:27.249Z,47.40
2018-09-02T02:09:55.767Z,47.40
2018-09-02T02:12:24.216Z,47.50
2018-09-02T02:14:52.667Z,47.50
2018-09-02T02:17:21.099Z,47.50
2018-09-02T02:19:49.665Z,47.50
2018-09-02T02:22:18.295Z,47.50
2018-09-02T02:24:46.731Z,47.50
2018-09-02T02:27:15.288Z,47.50
2018-09-02T02:29:43.785Z,47.60
2018-09-02T02:32:12.212Z,47.50
2018-09-02T02:34:40.729Z,47.50
2018-09-02T02:37:09.207Z,47.60
2018-09-02T02:39:37.643Z,47.60
2018-09-02T02:42:06.267Z,47.60
2018-09-02T02:44:34.731Z,47.60
2018-09-02T02:47:03.242Z,47.60
2018-09-02T02:49:31.695Z,47.70
2018-09-02T02:52:00.153Z,47.70
2018-09-02T02:54:28.569Z,47.70
2018-09-02T02:56:57.046Z,47.70
2018-09-02T02:59:25.477Z,47.70
2018-09-02T03:01:54.084Z,47.70
2018-09-02T03:04:22.552Z,47.80
2018-09-02T03:06:50.990Z,47.80
2018-09-02T03:09:19.472Z,47.80
2018-09-02T03:11:47.951Z,47.80
2018-09-02T03:14:16.380Z,47.80
2018-09-02T03:16:44.779Z,47.80
2018-09-02T03:19:13.216Z,47.90
2018-09-02T03:21:41.651Z,47.80
2018-09-02T03:24:10.181Z,47.80
2018-09-02T03:26:38.658Z,47.90
2018-09-02T03:29:07.070Z,47.90
2018-09-02T03:31:35.725Z,48.50
2018-09-02T03:34:04.278Z,47.90
2018-09-02T03:36:32.740Z,47.90
2018-09-02T03:39:01.184Z,47.90
2018-09-02T03:41:29.598Z,47.90
2018-09-02T03:43:58.064Z,48.00
2018-09-02T03:46:26.503Z,48.00
2018-09-02T03:48:55.086Z,48.00
2018-09-02T03:51:23.524Z,48.00
2018-09-02T03:53:51.993Z,48.00
2018-09-02T03:56:20.471Z,48.00
2018-09-02T03:58:49.064Z,48.00
2018-09-02T04:01:17.578Z,48.00
2018-09-02T04:03:46.096Z,48.00
2018-09-02T04:06:14.628Z,48.00
2018-09-02T04:08:43.104Z,48.10
2018-09-02T04:11:11.580Z,48.10
2018-09-02T04:13:40.029Z,48.10
2018-09-02T04:16:08.431Z,48.10
2018-09-02T04:18:36.873Z,48.20
2018-09-02T04:21:05.606Z,48.20
2018-09-02T04:23:34.192Z,48.20
2018-09-02T04:26:02.724Z,48.20
2018-09-02T04:28:31.132Z,48.30
2018-09-02T04:30:59.543Z,48.20
2018-09-02T04:33:28.063Z,48.20
2018-09-02T04:35:56.433Z,48.30
2018-09-02T04:38:24.840Z,48.30
2018-09-02T04:40:53.314Z,48.30
2018-09-02T04:43:21.817Z,48.30
2018-09-02T04:45:50.268Z,48.30
2018-09-02T04:48:18.756Z,48.30
2018-09-02T04:50:47.240Z,48.30
2018-09-02T04:53:15.766Z,48.40
2018-09-02T04:55:44.319Z,48.50
2018-09-02T04:58:12.865Z,48.50
2018-09-02T05:00:41.338Z,48.60
2018-09-02T05:03:09.778Z,48.70
2018-09-02T05:05:38.218Z,48.80
2018-09-02T05:08:06.656Z,48.80
2018-09-02T05:10:35.183Z,48.90
2018-09-02T05:13:03.707Z,48.90
2018-09-02T05:15:32.217Z,49.00
2018-09-02T05:18:00.807Z,49.00
2018-09-02T05:20:29.264Z,49.00
2018-09-02T05:22:57.705Z,49.00
2018-09-02T05:25:26.179Z,49.10
2018-09-02T05:27:54.769Z,49.10
2018-09-02T05:30:23.231Z,49.20
2018-09-02T05:32:51.725Z,49.20
2018-09-02T05:35:20.161Z,49.20
2018-09-02T05:37:48.608Z,49.30
2018-09-02T05:40:17.064Z,49.30
2018-09-02T05:42:45.507Z,49.40
2018-09-02T05:45:14.129Z,49.40
2018-09-02T05:47:42.629Z,49.60
2018-09-02T05:50:11.049Z,49.80
2018-09-02T05:52:39.593Z,49.70
2018-09-02T05:55:08.231Z,49.60
2018-09-02T05:57:36.866Z,49.60
2018-09-02T06:00:05.838Z,49.60
2018-09-02T06:02:34.361Z,49.60
2018-09-02T06:05:02.798Z,49.40
2018-09-02T06:07:31.282Z,49.20
2018-09-02T06:09:59.802Z,49.10
2018-09-02T06:12:28.232Z,49.00
2018-09-02T06:14:56.931Z,48.90
2018-09-02T06:17:25.541Z,48.90
2018-09-02T06:19:53.964Z,48.80
2018-09-02T06:22:22.360Z,48.80
2018-09-02T06:24:50.816Z,48.80
2018-09-02T06:27:19.311Z,48.80
2018-09-02T06:29:47.877Z,48.80
2018-09-02T06:32:16.436Z,48.90
2018-09-02T06:34:44.857Z,49.00
2018-09-02T06:37:13.293Z,49.00
2018-09-02T06:39:42.064Z,49.10
2018-09-02T06:42:10.377Z,49.10
2018-09-02T06:44:38.751Z,49.20
2018-09-02T06:47:07.166Z,49.30
2018-09-02T06:49:35.664Z,49.40
2018-09-02T06:52:04.074Z,49.60
2018-09-02T06:54:32.502Z,49.70
2018-09-02T06:57:00.870Z,49.90
2018-09-02T06:59:29.210Z,50.20
2018-09-02T07:01:57.670Z,50.50
2018-09-02T07:04:26.104Z,50.50
2018-09-02T07:06:54.582Z,50.50
2018-09-02T07:09:22.963Z,50.70
2018-09-02T07:11:51.506Z,50.80
2018-09-02T07:14:19.934Z,51.00
2018-09-02T07:16:48.333Z,51.10
2018-09-02T07:19:16.847Z,51.70
2018-09-02T07:21:45.233Z,52.30
2018-09-02T07:24:13.661Z,52.40
2018-09-02T07:26:42.157Z,52.40
2018-09-02T07:29:10.540Z,52.30
2018-09-02T07:31:39.021Z,52.10
2018-09-02T07:34:07.426Z,52.00
2018-09-02T07:36:35.806Z,52.10
2018-09-02T07:39:04.955Z,52.40
2018-09-02T07:41:33.363Z,52.50
2018-09-02T07:44:02.775Z,52.50
2018-09-02T07:46:31.099Z,52.80
2018-09-02T07:49:00.522Z,52.50
2018-09-02T07:51:29.087Z,52.30
2018-09-02T07:53:57.484Z,50.60
2018-09-02T07:56:25.838Z,47.90
2018-09-02T07:58:54.227Z,46.10
2018-09-02T08:01:22.698Z,46.00
2018-09-02T08:03:51.080Z,45.10
2018-09-02T08:06:19.446Z,45.00
2018-09-02T08:08:47.817Z,45.20
2018-09-02T08:11:16.222Z,45.10
2018-09-02T08:13:44.766Z,44.90
2018-09-02T08:16:13.188Z,44.30
2018-09-02T08:18:41.724Z,44.90
2018-09-02T08:21:10.178Z,44.70
2018-09-02T08:23:38.687Z,44.80
2018-09-02T08:26:07.444Z,45.10
2018-09-02T08:28:35.966Z,47.70
2018-09-02T08:31:04.473Z,49.40
2018-09-02T08:33:33.057Z,51.00
2018-09-02T08:36:01.467Z,51.70
2018-09-02T08:38:29.949Z,52.80
2018-09-02T08:40:58.363Z,52.60
2018-09-02T08:43:26.784Z,53.00
2018-09-02T08:45:55.264Z,53.20
2018-09-02T08:48:23.669Z,53.40
2018-09-02T08:50:52.082Z,53.50
2018-09-02T08:53:20.521Z,53.60
2018-09-02T08:55:48.963Z,53.80
2018-09-02T08:58:17.411Z,54.10
2018-09-02T09:00:45.887Z,53.90
2018-09-02T09:03:15.328Z,54.90
2018-09-02T09:05:43.743Z,54.30
2018-09-02T09:08:13.459Z,55.20
2018-09-02T09:10:41.765Z,54.50
2018-09-02T09:13:11.168Z,54.70
2018-09-02T09:15:40.695Z,54.60
2018-09-02T09:18:09.089Z,54.50
2018-09-02T09:20:37.480Z,54.40
2018-09-02T09:23:06.052Z,54.60
2018-09-02T09:25:34.562Z,54.70
2018-09-02T09:28:03.018Z,54.40
2018-09-02T09:30:31.612Z,54.70
2018-09-02T09:33:00.067Z,54.60
2018-09-02T09:35:28.604Z,54.50
2018-09-02T09:37:57.010Z,54.50
2018-09-02T09:40:25.448Z,54.60
2018-09-02T09:42:53.909Z,54.50
2018-09-02T09:45:22.339Z,55.10
2018-09-02T09:47:51.808Z,54.50
2018-09-02T09:50:20.195Z,54.60
2018-09-02T09:52:48.656Z,54.50
2018-09-02T09:55:17.115Z,54.50
2018-09-02T09:57:45.649Z,54.50
2018-09-02T10:00:18.500Z,54.60
2018-09-02T10:02:47.089Z,54.60
2018-09-02T10:05:15.519Z,54.60
2018-09-02T10:07:44.161Z,54.50
2018-09-02T10:10:12.600Z,54.60
2018-09-02T10:12:41.191Z,54.00
2018-09-02T10:15:09.640Z,54.00
2018-09-02T10:17:38.160Z,53.90
2018-09-02T10:20:06.688Z,53.60
2018-09-02T10:22:35.287Z,53.60
2018-09-02T10:25:03.703Z,53.50
2018-09-02T10:27:32.202Z,53.50
2018-09-02T10:30:00.613Z,53.70
2018-09-02T10:32:29.689Z,54.10
2018-09-02T10:34:58.130Z,53.80
2018-09-02T10:37:26.735Z,53.90
2018-09-02T10:39:55.412Z,54.00
2018-09-02T10:42:23.929Z,54.10
2018-09-02T10:44:52.436Z,54.10
2018-09-02T10:47:21.855Z,54.10
2018-09-02T10:49:50.453Z,54.20
2018-09-02T10:52:18.915Z,54.20
2018-09-02T10:54:47.436Z,54.20
2018-09-02T10:57:15.998Z,54.30
2018-09-02T10:59:44.546Z,54.50
2018-09-02T11:02:12.940Z,54.00
2018-09-02T11:04:41.572Z,53.80
2018-09-02T11:07:10.176Z,53.60
2018-09-02T11:09:38.655Z,53.60
2018-09-02T11:12:07.205Z,53.50
2018-09-02T11:14:36.309Z,53.50
2018-09-02T11:17:04.934Z,53.60
2018-09-02T11:19:35.659Z,53.50
2018-09-02T11:22:04.448Z,53.50
2018-09-02T11:24:33.800Z,53.50
2018-09-02T11:27:02.580Z,53.40
2018-09-02T11:29:31.568Z,53.30
2018-09-02T11:31:59.979Z,53.00
2018-09-02T11:34:28.771Z,53.10
2018-09-02T11:36:57.287Z,53.10
2018-09-02T11:39:26.062Z,52.90
2018-09-02T11:41:54.549Z,52.90
2018-09-02T11:44:24.245Z,52.90
2018-09-02T11:46:52.779Z,52.90
2018-09-02T11:49:21.508Z,52.80
2018-09-02T11:51:49.995Z,52.60
2018-09-02T11:54:18.694Z,52.50
2018-09-02T11:56:47.352Z,52.50
2018-09-02T11:59:16.910Z,52.40
2018-09-02T12:01:45.500Z,52.40
2018-09-02T12:04:13.991Z,52.40
2018-09-02T12:06:42.500Z,52.30
2018-09-02T12:09:10.935Z,52.20
2018-09-02T12:11:39.485Z,52.10
2018-09-02T12:14:08.060Z,52.10
2018-09-02T12:16:36.532Z,52.00
2018-09-02T12:19:05.069Z,52.60
2018-09-02T12:21:34.495Z,52.00
2018-09-02T12:24:02.940Z,52.00
2018-09-02T12:26:31.374Z,51.70
2018-09-02T12:28:59.883Z,51.80
2018-09-02T12:31:28.405Z,50.80
2018-09-02T12:33:56.890Z,51.60
2018-09-02T12:36:25.496Z,51.60
2018-09-02T12:38:54.153Z,51.60
2018-09-02T12:41:22.787Z,51.60
2018-09-02T12:43:51.283Z,51.60
2018-09-02T12:46:19.863Z,51.30
2018-09-02T12:48:48.313Z,51.50
2018-09-02T12:51:16.997Z,51.50
2018-09-02T12:53:47.326Z,51.50
2018-09-02T12:56:15.900Z,51.50
2018-09-02T12:58:44.475Z,51.30
2018-09-02T13:01:13.000Z,51.50
2018-09-02T13:03:41.461Z,51.50
2018-09-02T13:06:10.172Z,51.50
2018-09-02T13:08:38.906Z,52.40
2018-09-02T13:11:07.710Z,53.50
2018-09-02T13:13:36.156Z,52.80
2018-09-02T13:16:04.619Z,51.20
2018-09-02T13:18:33.108Z,51.30
2018-09-02T13:21:01.514Z,50.70
2018-09-02T13:23:29.930Z,47.80
2018-09-02T13:25:58.425Z,48.90
2018-09-02T13:28:26.970Z,49.90
2018-09-02T13:30:55.510Z,50.50
2018-09-02T13:33:23.965Z,50.90
2018-09-02T13:35:52.390Z,51.20
2018-09-02T13:38:20.872Z,51.40
2018-09-02T13:40:49.329Z,51.40
2018-09-02T13:43:18.218Z,51.40
2018-09-02T13:45:46.579Z,51.40
2018-09-02T13:48:16.022Z,51.40
2018-09-02T13:50:44.522Z,51.40
2018-09-02T13:53:12.943Z,51.40
2018-09-02T13:55:41.344Z,51.40
2018-09-02T13:58:09.788Z,51.60
2018-09-02T14:00:38.209Z,51.60
2018-09-02T14:03:06.691Z,51.60
2018-09-02T14:07:05.671Z,51.60
2018-09-02T14:09:34.156Z,51.70
2018-09-02T14:12:02.569Z,51.50
2018-09-02T14:14:31.010Z,51.40
2018-09-02T14:16:59.443Z,52.00
2018-09-02T14:19:28.286Z,51.40
2018-09-02T14:21:56.768Z,51.40
2018-09-02T14:24:25.516Z,51.50
2018-09-02T14:26:54.213Z,51.40
2018-09-02T14:29:22.867Z,51.50
2018-09-02T14:31:51.480Z,51.50
2018-09-02T14:34:19.974Z,51.50
2018-09-02T14:36:48.856Z,51.50
2018-09-02T14:39:17.437Z,51.50
2018-09-02T14:41:46.025Z,51.50
2018-09-02T14:44:15.559Z,51.50
2018-09-02T14:46:44.239Z,51.50
2018-09-02T14:49:12.891Z,51.50
2018-09-02T14:51:41.984Z,51.40
2018-09-02T14:54:10.917Z,51.60
2018-09-02T14:56:40.594Z,51.60
2018-09-02T14:59:09.044Z,51.50
2018-09-02T15:01:37.495Z,51.50
2018-09-02T15:04:06.089Z,51.20
2018-09-02T15:06:34.815Z,51.30
2018-09-02T15:09:03.826Z,51.50
2018-09-02T15:11:32.522Z,51.70
2018-09-02T15:14:01.919Z,51.90
2018-09-02T15:16:30.750Z,52.10
2018-09-02T15:18:59.246Z,52.00
2018-09-02T15:21:28.113Z,51.60
2018-09-02T15:23:57.567Z,50.70
2018-09-02T15:26:27.083Z,48.10
2018-09-02T15:28:55.705Z,48.30
2018-09-02T15:31:24.200Z,47.60
2018-09-02T15:33:52.632Z,48.10
2018-09-02T15:36:21.456Z,47.10
2018-09-02T15:38:49.992Z,48.20
2018-09-02T15:41:18.382Z,48.40
2018-09-02T15:43:46.859Z,47.40
2018-09-02T15:46:15.532Z,47.70
2018-09-02T15:48:43.991Z,47.70
2018-09-02T15:51:13.500Z,47.80
2018-09-02T15:53:43.203Z,48.20
2018-09-02T15:56:11.691Z,48.70
2018-09-02T15:58:40.288Z,49.40
2018-09-02T16:01:08.792Z,49.80
2018-09-02T16:03:37.528Z,50.20
2018-09-02T16:06:06.108Z,50.70
2018-09-02T16:08:35.036Z,49.50
2018-09-02T16:11:03.636Z,51.00
2018-09-02T16:13:32.373Z,51.60
2018-09-02T16:16:01.000Z,52.00
2018-09-02T16:18:29.466Z,52.10
2018-09-02T16:20:57.971Z,52.40
2018-09-02T16:23:27.483Z,52.80
2018-09-02T16:25:56.992Z,52.90
2018-09-02T16:28:25.544Z,53.40
2018-09-02T16:30:54.044Z,53.60
2018-09-02T16:33:22.736Z,53.80
2018-09-02T16:35:51.278Z,53.80
2018-09-02T16:38:19.733Z,53.70
2018-09-02T16:40:53.101Z,53.60
2018-09-02T16:43:21.506Z,53.70
2018-09-02T16:45:49.932Z,54.40
2018-09-02T16:48:18.740Z,55.10
2018-09-02T16:50:48.534Z,54.00
2018-09-02T16:53:18.586Z,53.80
2018-09-02T16:55:47.169Z,53.70
2018-09-02T16:58:16.023Z,53.10
2018-09-02T17:00:44.574Z,50.00
2018-09-02T17:03:13.293Z,50.80
2018-09-02T17:05:41.777Z,50.10
2018-09-02T17:08:10.179Z,49.10
2018-09-02T17:10:38.699Z,49.40
2018-09-02T17:13:07.240Z,48.80
2018-09-02T17:15:35.773Z,49.00
2018-09-02T17:18:04.321Z,49.50
2018-09-02T17:20:36.039Z,50.30
2018-09-02T17:23:09.867Z,50.20
2018-09-02T17:25:38.324Z,50.40
2018-09-02T17:28:06.880Z,50.80
2018-09-02T17:30:37.165Z,51.10
2018-09-02T17:33:06.375Z,51.20
2018-09-02T17:35:34.902Z,51.30
2018-09-02T17:38:04.781Z,51.40
2018-09-02T17:40:33.393Z,51.50
2018-09-02T17:43:02.019Z,51.80
2018-09-02T17:45:30.491Z,51.90
2018-09-02T17:47:58.990Z,51.90
2018-09-02T17:50:27.568Z,52.30
2018-09-02T17:52:56.084Z,51.70
2018-09-02T17:55:24.692Z,51.30
2018-09-02T17:57:53.140Z,51.20
2018-09-02T18:00:39.863Z,51.40
2018-09-02T18:03:08.356Z,51.00
2018-09-02T18:05:36.860Z,51.00
2018-09-02T18:08:06.364Z,50.40
2018-09-02T18:10:35.684Z,50.60
2018-09-02T18:13:04.259Z,48.20
2018-09-02T18:15:32.891Z,47.00
2018-09-02T18:18:02.425Z,46.20
2018-09-02T18:20:30.915Z,45.80
2018-09-02T18:23:00.679Z,46.10
2018-09-02T18:25:29.078Z,46.40
2018-09-02T18:27:59.968Z,46.20
2018-09-02T18:30:28.583Z,46.40
2018-09-02T18:32:57.244Z,46.50
2018-09-02T18:35:25.736Z,46.90
2018-09-02T18:37:54.306Z,46.80
2018-09-02T18:40:22.777Z,46.80
2018-09-02T18:42:51.393Z,47.20
2018-09-02T18:45:20.008Z,47.10
2018-09-02T18:47:48.850Z,47.40
2018-09-02T18:50:17.273Z,47.40
2018-09-02T18:52:46.004Z,47.60
2018-09-02T18:55:14.462Z,47.50
2018-09-02T18:57:42.952Z,47.60
2018-09-02T19:00:11.514Z,47.40
2018-09-02T19:02:39.956Z,47.40
2018-09-02T19:05:08.397Z,47.60
2018-09-02T19:07:36.984Z,47.60
2018-09-02T19:10:05.583Z,46.90
2018-09-02T19:12:34.052Z,47.00
2018-09-02T19:15:02.481Z,46.50
2018-09-02T19:17:30.974Z,46.70
2018-09-02T19:19:59.388Z,46.70
2018-09-02T19:22:27.855Z,46.50
2018-09-02T19:24:56.352Z,47.40
2018-09-02T19:27:24.884Z,47.40
2018-09-02T19:29:53.782Z,47.20
2018-09-02T19:32:22.165Z,47.30
2018-09-02T19:34:51.010Z,47.30
2018-09-02T19:37:19.578Z,47.30
2018-09-02T19:39:48.081Z,47.30
2018-09-02T19:42:16.697Z,47.30
2018-09-02T19:44:46.364Z,47.30
2018-09-02T19:47:14.892Z,47.30
2018-09-02T19:50:45.797Z,47.30
2018-09-02T19:53:14.452Z,47.40
2018-09-02T19:55:42.956Z,47.30
2018-09-02T19:58:11.508Z,47.20
2018-09-02T20:00:40.095Z,47.20
2018-09-02T20:03:08.650Z,47.10
2018-09-02T20:05:37.150Z,47.20
2018-09-02T20:08:05.871Z,47.20
2018-09-02T20:10:34.814Z,47.00
2018-09-02T20:13:03.277Z,46.90
2018-09-02T20:15:31.911Z,47.10
2018-09-02T20:18:00.300Z,47.10
2018-09-02T20:20:28.784Z,46.90
2018-09-02T20:22:57.312Z,45.50
2018-09-02T20:25:25.757Z,45.40
2018-09-02T20:27:54.310Z,45.40
2018-09-02T20:30:23.117Z,45.50
2018-09-02T20:32:51.802Z,45.50
2018-09-02T20:35:20.323Z,45.60
2018-09-02T20:37:48.847Z,45.70
2018-09-02T20:40:17.324Z,45.60
2018-09-02T20:42:45.915Z,45.80
2018-09-02T20:45:14.441Z,45.80
2018-09-02T20:47:43.372Z,45.80
2018-09-02T20:50:12.892Z,45.80
2018-09-02T20:52:41.632Z,45.70
2018-09-02T20:55:11.410Z,45.80
2018-09-02T20:57:39.896Z,45.90
2018-09-02T21:00:08.456Z,45.90
2018-09-02T21:02:37.131Z,46.00
2018-09-02T21:05:06.030Z,45.80
2018-09-02T21:07:34.600Z,45.80
2018-09-02T21:10:03.188Z,45.80
2018-09-02T21:12:31.774Z,45.80
2018-09-02T21:15:00.813Z,45.80
2018-09-02T21:17:29.361Z,45.80
2018-09-02T21:19:58.695Z,46.00
2018-09-02T21:22:27.183Z,45.80
2018-09-02T21:24:55.753Z,46.00
2018-09-02T21:27:24.452Z,46.10
2018-09-02T21:29:52.923Z,45.90
2018-09-02T21:32:21.381Z,45.90
2018-09-02T21:34:49.842Z,46.10
2018-09-02T21:37:20.577Z,46.10
2018-09-02T21:39:49.124Z,45.90
2018-09-02T21:42:17.578Z,45.80
2018-09-02T21:44:46.020Z,45.80
2018-09-02T21:47:14.489Z,45.80
2018-09-02T21:49:43.095Z,45.60
2018-09-02T21:52:11.708Z,45.50
2018-09-02T21:54:40.180Z,45.40
2018-09-02T21:57:08.746Z,45.50
2018-09-02T21:59:37.330Z,45.40
2018-09-02T22:02:06.689Z,45.30
2018-09-02T22:04:35.329Z,45.20
2018-09-02T22:07:04.014Z,45.20
2018-09-02T22:09:32.562Z,45.20
2018-09-02T22:12:01.198Z,45.10
2018-09-02T22:14:29.684Z,45.10
2018-09-02T22:16:58.171Z,45.10
2018-09-02T22:19:26.752Z,45.00
2018-09-02T22:21:55.482Z,45.00
2018-09-02T22:24:24.108Z,45.00
2018-09-02T22:26:52.716Z,45.00
2018-09-02T22:29:21.176Z,45.00
2018-09-02T22:31:49.627Z,44.90
2018-09-02T22:34:18.088Z,45.00
2018-09-02T22:36:46.556Z,45.00
2018-09-02T22:39:15.414Z,45.00
2018-09-02T22:41:44.179Z,44.90
2018-09-02T22:44:12.699Z,44.90
2018-09-02T22:46:41.163Z,44.90
2018-09-02T22:49:09.744Z,45.00
2018-09-02T22:51:38.244Z,44.90
2018-09-02T22:54:06.753Z,45.00
2018-09-02T22:56:36.318Z,45.00
2018-09-02T22:59:05.052Z,44.90
2018-09-02T23:01:34.541Z,44.90
2018-09-02T23:04:02.998Z,45.10
2018-09-02T23:06:31.480Z,45.00
2018-09-02T23:09:00.001Z,45.10
2018-09-02T23:11:28.492Z,45.10
2018-09-02T23:13:57.099Z,45.10
2018-09-02T23:16:25.659Z,45.10
2018-09-02T23:18:54.178Z,45.10
2018-09-02T23:21:22.742Z,45.10
2018-09-02T23:23:51.987Z,45.20
2018-09-02T23:26:20.524Z,45.80
2018-09-02T23:28:49.040Z,45.30
2018-09-02T23:31:17.576Z,45.20
2018-09-02T23:33:46.078Z,45.30
2018-09-02T23:36:14.556Z,45.40
2018-09-02T23:38:43.039Z,45.40
2018-09-02T23:41:11.469Z,45.50
2018-09-02T23:43:39.931Z,45.50
2018-09-02T23:46:08.427Z,45.50
2018-09-02T23:48:37.002Z,45.60
2018-09-02T23:51:05.644Z,45.70
2018-09-02T23:53:34.181Z,45.90
2018-09-02T23:56:02.716Z,45.90
2018-09-02T23:58:31.148Z,45.80
